sensor_id;sensor_type;location;lat;lon;timestamp;P1;durP1;ratioP1;P2;durP2;ratioP2
36817;SDS011;22761;51.542;16.450;2022-12-24T00:00:43;26.13;;;17.97;;
36817;SDS011;22761;51.542;16.450;2022-12-24T00:03:12;26.87;;;17.40;;
36817;SDS011;22761;51.542;16.450;2022-12-24T00:05:39;22.57;;;15.30;;
36817;SDS011;22761;51.542;16.450;2022-12-24T00:08:06;24.20;;;15.80;;
36817;SDS011;22761;51.542;16.450;2022-12-24T00:10:33;18.90;;;13.23;;
36817;SDS011;22761;51.542;16.450;2022-12-24T00:13:00;19.97;;;14.40;;
36817;SDS011;22761;51.542;16.450;2022-12-24T00:15:27;18.77;;;12.37;;
36817;SDS011;22761;51.542;16.450;2022-12-24T00:17:55;18.17;;;12.10;;
36817;SDS011;22761;51.542;16.450;2022-12-24T00:20:22;16.67;;;12.00;;
36817;SDS011;22761;51.542;16.450;2022-12-24T00:22:49;17.17;;;11.83;;
36817;SDS011;22761;51.542;16.450;2022-12-24T00:25:17;17.20;;;12.40;;
36817;SDS011;22761;51.542;16.450;2022-12-24T00:27:44;13.83;;;10.10;;
36817;SDS011;22761;51.542;16.450;2022-12-24T00:30:11;12.90;;;9.53;;
36817;SDS011;22761;51.542;16.450;2022-12-24T00:32:38;12.97;;;9.33;;
36817;SDS011;22761;51.542;16.450;2022-12-24T00:35:05;11.97;;;9.30;;
36817;SDS011;22761;51.542;16.450;2022-12-24T00:37:34;14.27;;;10.20;;
36817;SDS011;22761;51.542;16.450;2022-12-24T00:40:02;12.43;;;8.50;;
36817;SDS011;22761;51.542;16.450;2022-12-24T00:42:29;13.47;;;9.90;;
36817;SDS011;22761;51.542;16.450;2022-12-24T00:44:56;13.87;;;9.03;;
36817;SDS011;22761;51.542;16.450;2022-12-24T00:47:23;15.40;;;11.27;;
36817;SDS011;22761;51.542;16.450;2022-12-24T00:49:51;33.90;;;24.00;;
36817;SDS011;22761;51.542;16.450;2022-12-24T00:52:18;22.67;;;16.77;;
36817;SDS011;22761;51.542;16.450;2022-12-24T00:54:45;19.43;;;14.03;;
36817;SDS011;22761;51.542;16.450;2022-12-24T00:57:13;17.90;;;13.07;;
36817;SDS011;22761;51.542;16.450;2022-12-24T00:59:40;17.77;;;13.03;;
36817;SDS011;22761;51.542;16.450;2022-12-24T01:02:07;16.07;;;12.07;;
36817;SDS011;22761;51.542;16.450;2022-12-24T01:04:34;16.93;;;11.83;;
36817;SDS011;22761;51.542;16.450;2022-12-24T01:07:20;17.10;;;12.17;;
36817;SDS011;22761;51.542;16.450;2022-12-24T01:09:47;15.33;;;11.53;;
36817;SDS011;22761;51.542;16.450;2022-12-24T01:12:14;15.93;;;11.67;;
36817;SDS011;22761;51.542;16.450;2022-12-24T01:14:41;18.07;;;11.50;;
36817;SDS011;22761;51.542;16.450;2022-12-24T01:17:08;15.10;;;11.10;;
36817;SDS011;22761;51.542;16.450;2022-12-24T01:19:35;15.17;;;11.47;;
36817;SDS011;22761;51.542;16.450;2022-12-24T01:22:02;16.47;;;11.60;;
36817;SDS011;22761;51.542;16.450;2022-12-24T01:24:29;14.03;;;10.97;;
36817;SDS011;22761;51.542;16.450;2022-12-24T01:26:56;19.60;;;12.43;;
36817;SDS011;22761;51.542;16.450;2022-12-24T01:29:23;16.50;;;12.03;;
36817;SDS011;22761;51.542;16.450;2022-12-24T01:31:50;17.50;;;12.90;;
36817;SDS011;22761;51.542;16.450;2022-12-24T01:34:18;20.23;;;13.03;;
36817;SDS011;22761;51.542;16.450;2022-12-24T01:36:45;26.63;;;17.10;;
36817;SDS011;22761;51.542;16.450;2022-12-24T01:39:12;32.93;;;20.37;;
36817;SDS011;22761;51.542;16.450;2022-12-24T01:41:39;22.90;;;16.53;;
36817;SDS011;22761;51.542;16.450;2022-12-24T01:44:25;20.50;;;14.20;;
36817;SDS011;22761;51.542;16.450;2022-12-24T01:47:03;21.13;;;14.07;;
36817;SDS011;22761;51.542;16.450;2022-12-24T01:49:50;27.00;;;17.07;;
36817;SDS011;22761;51.542;16.450;2022-12-24T01:52:22;35.07;;;19.83;;
36817;SDS011;22761;51.542;16.450;2022-12-24T01:54:59;31.97;;;18.33;;
36817;SDS011;22761;51.542;16.450;2022-12-24T01:57:34;29.73;;;17.80;;
36817;SDS011;22761;51.542;16.450;2022-12-24T02:00:11;22.67;;;15.53;;
36817;SDS011;22761;51.542;16.450;2022-12-24T02:02:40;18.57;;;13.50;;
36817;SDS011;22761;51.542;16.450;2022-12-24T02:07:45;18.97;;;12.93;;
36817;SDS011;22761;51.542;16.450;2022-12-24T02:10:13;19.03;;;13.53;;
36817;SDS011;22761;51.542;16.450;2022-12-24T02:12:41;19.77;;;13.67;;
36817;SDS011;22761;51.542;16.450;2022-12-24T02:15:11;19.32;;;14.10;;
36817;SDS011;22761;51.542;16.450;2022-12-24T02:20:35;18.57;;;13.37;;
36817;SDS011;22761;51.542;16.450;2022-12-24T02:23:18;18.90;;;13.40;;
36817;SDS011;22761;51.542;16.450;2022-12-24T02:28:45;14.80;;;11.43;;
36817;SDS011;22761;51.542;16.450;2022-12-24T02:31:38;11.47;;;7.90;;
36817;SDS011;22761;51.542;16.450;2022-12-24T02:36:54;12.27;;;8.97;;
36817;SDS011;22761;51.542;16.450;2022-12-24T02:39:43;12.70;;;9.77;;
36817;SDS011;22761;51.542;16.450;2022-12-24T02:42:21;11.22;;;8.90;;
36817;SDS011;22761;51.542;16.450;2022-12-24T02:44:53;13.33;;;8.87;;
36817;SDS011;22761;51.542;16.450;2022-12-24T02:47:24;12.23;;;8.83;;
36817;SDS011;22761;51.542;16.450;2022-12-24T02:49:53;11.25;;;9.23;;
36817;SDS011;22761;51.542;16.450;2022-12-24T03:00:23;14.10;;;9.23;;
36817;SDS011;22761;51.542;16.450;2022-12-24T03:05:50;15.07;;;10.40;;
36817;SDS011;22761;51.542;16.450;2022-12-24T03:08:30;14.60;;;10.67;;
36817;SDS011;22761;51.542;16.450;2022-12-24T03:11:08;13.67;;;9.83;;
36817;SDS011;22761;51.542;16.450;2022-12-24T03:13:39;12.37;;;9.17;;
36817;SDS011;22761;51.542;16.450;2022-12-24T03:16:09;18.55;;;12.70;;
36817;SDS011;22761;51.542;16.450;2022-12-24T03:18:41;17.50;;;12.37;;
36817;SDS011;22761;51.542;16.450;2022-12-24T03:23:56;21.03;;;12.97;;
36817;SDS011;22761;51.542;16.450;2022-12-24T03:26:24;17.90;;;12.60;;
36817;SDS011;22761;51.542;16.450;2022-12-24T03:28:54;16.12;;;11.65;;
36817;SDS011;22761;51.542;16.450;2022-12-24T03:31:21;17.23;;;11.73;;
36817;SDS011;22761;51.542;16.450;2022-12-24T03:33:49;16.67;;;12.17;;
36817;SDS011;22761;51.542;16.450;2022-12-24T03:36:16;15.67;;;11.47;;
36817;SDS011;22761;51.542;16.450;2022-12-24T03:38:43;17.13;;;12.50;;
36817;SDS011;22761;51.542;16.450;2022-12-24T03:41:10;19.43;;;13.77;;
36817;SDS011;22761;51.542;16.450;2022-12-24T03:43:38;21.30;;;14.47;;
36817;SDS011;22761;51.542;16.450;2022-12-24T03:46:05;16.70;;;12.93;;
36817;SDS011;22761;51.542;16.450;2022-12-24T03:48:33;19.03;;;13.10;;
36817;SDS011;22761;51.542;16.450;2022-12-24T03:51:01;18.97;;;13.20;;
36817;SDS011;22761;51.542;16.450;2022-12-24T03:53:29;19.23;;;13.10;;
36817;SDS011;22761;51.542;16.450;2022-12-24T03:55:57;16.20;;;12.67;;
36817;SDS011;22761;51.542;16.450;2022-12-24T03:58:24;16.73;;;12.00;;
36817;SDS011;22761;51.542;16.450;2022-12-24T04:00:51;18.23;;;12.23;;
36817;SDS011;22761;51.542;16.450;2022-12-24T04:03:19;17.47;;;12.40;;
36817;SDS011;22761;51.542;16.450;2022-12-24T04:05:46;15.80;;;11.70;;
36817;SDS011;22761;51.542;16.450;2022-12-24T04:08:14;17.90;;;12.60;;
36817;SDS011;22761;51.542;16.450;2022-12-24T04:10:41;18.00;;;12.50;;
36817;SDS011;22761;51.542;16.450;2022-12-24T04:13:08;18.07;;;12.33;;
36817;SDS011;22761;51.542;16.450;2022-12-24T04:15:35;16.23;;;11.63;;
36817;SDS011;22761;51.542;16.450;2022-12-24T04:18:02;15.20;;;11.47;;
36817;SDS011;22761;51.542;16.450;2022-12-24T04:20:30;15.90;;;10.87;;
36817;SDS011;22761;51.542;16.450;2022-12-24T04:22:57;12.83;;;8.97;;
36817;SDS011;22761;51.542;16.450;2022-12-24T04:25:24;12.10;;;8.37;;
36817;SDS011;22761;51.542;16.450;2022-12-24T04:27:51;11.53;;;7.80;;
36817;SDS011;22761;51.542;16.450;2022-12-24T04:30:18;11.70;;;8.67;;
36817;SDS011;22761;51.542;16.450;2022-12-24T04:32:45;12.83;;;8.63;;
36817;SDS011;22761;51.542;16.450;2022-12-24T04:35:12;12.70;;;9.53;;
36817;SDS011;22761;51.542;16.450;2022-12-24T04:37:39;16.63;;;10.53;;
36817;SDS011;22761;51.542;16.450;2022-12-24T04:40:07;15.57;;;10.20;;
36817;SDS011;22761;51.542;16.450;2022-12-24T04:42:35;17.87;;;11.13;;
36817;SDS011;22761;51.542;16.450;2022-12-24T04:45:03;17.03;;;11.40;;
36817;SDS011;22761;51.542;16.450;2022-12-24T04:47:30;19.23;;;12.43;;
36817;SDS011;22761;51.542;16.450;2022-12-24T04:49:57;19.43;;;12.20;;
36817;SDS011;22761;51.542;16.450;2022-12-24T04:52:26;18.43;;;11.83;;
36817;SDS011;22761;51.542;16.450;2022-12-24T04:54:54;19.00;;;12.20;;
36817;SDS011;22761;51.542;16.450;2022-12-24T04:57:21;16.47;;;11.30;;
36817;SDS011;22761;51.542;16.450;2022-12-24T04:59:48;21.10;;;11.43;;
36817;SDS011;22761;51.542;16.450;2022-12-24T05:02:15;20.23;;;12.07;;
36817;SDS011;22761;51.542;16.450;2022-12-24T05:04:42;20.60;;;12.57;;
36817;SDS011;22761;51.542;16.450;2022-12-24T05:07:09;24.40;;;14.50;;
36817;SDS011;22761;51.542;16.450;2022-12-24T05:09:36;23.33;;;14.77;;
36817;SDS011;22761;51.542;16.450;2022-12-24T05:12:04;22.47;;;14.80;;
36817;SDS011;22761;51.542;16.450;2022-12-24T05:14:32;21.90;;;14.67;;
36817;SDS011;22761;51.542;16.450;2022-12-24T05:16:59;26.07;;;15.63;;
36817;SDS011;22761;51.542;16.450;2022-12-24T05:19:26;24.80;;;16.03;;
36817;SDS011;22761;51.542;16.450;2022-12-24T05:21:53;23.17;;;14.53;;
36817;SDS011;22761;51.542;16.450;2022-12-24T05:24:38;21.43;;;13.47;;
36817;SDS011;22761;51.542;16.450;2022-12-24T05:27:24;20.00;;;13.23;;
36817;SDS011;22761;51.542;16.450;2022-12-24T05:29:51;32.77;;;17.40;;
36817;SDS011;22761;51.542;16.450;2022-12-24T05:32:18;29.47;;;16.93;;
36817;SDS011;22761;51.542;16.450;2022-12-24T05:34:45;28.10;;;16.93;;
36817;SDS011;22761;51.542;16.450;2022-12-24T05:37:14;28.13;;;16.87;;
36817;SDS011;22761;51.542;16.450;2022-12-24T05:39:41;24.80;;;15.87;;
36817;SDS011;22761;51.542;16.450;2022-12-24T05:42:09;32.30;;;18.60;;
36817;SDS011;22761;51.542;16.450;2022-12-24T05:44:36;41.90;;;20.50;;
36817;SDS011;22761;51.542;16.450;2022-12-24T05:47:03;36.07;;;20.20;;
36817;SDS011;22761;51.542;16.450;2022-12-24T05:49:30;19.10;;;13.23;;
36817;SDS011;22761;51.542;16.450;2022-12-24T05:51:57;19.40;;;13.17;;
36817;SDS011;22761;51.542;16.450;2022-12-24T05:54:25;17.03;;;11.80;;
36817;SDS011;22761;51.542;16.450;2022-12-24T05:56:52;15.60;;;11.40;;
36817;SDS011;22761;51.542;16.450;2022-12-24T05:59:19;14.70;;;10.13;;
36817;SDS011;22761;51.542;16.450;2022-12-24T06:01:46;15.07;;;10.30;;
36817;SDS011;22761;51.542;16.450;2022-12-24T06:04:13;17.13;;;11.47;;
36817;SDS011;22761;51.542;16.450;2022-12-24T06:06:40;15.77;;;11.40;;
36817;SDS011;22761;51.542;16.450;2022-12-24T06:09:08;18.33;;;13.13;;
36817;SDS011;22761;51.542;16.450;2022-12-24T06:11:35;21.00;;;14.10;;
36817;SDS011;22761;51.542;16.450;2022-12-24T06:14:02;22.27;;;15.30;;
36817;SDS011;22761;51.542;16.450;2022-12-24T06:16:29;24.43;;;17.00;;
36817;SDS011;22761;51.542;16.450;2022-12-24T06:18:56;26.10;;;17.07;;
36817;SDS011;22761;51.542;16.450;2022-12-24T06:21:23;24.80;;;17.60;;
36817;SDS011;22761;51.542;16.450;2022-12-24T06:23:50;26.03;;;17.57;;
36817;SDS011;22761;51.542;16.450;2022-12-24T06:26:18;24.23;;;16.63;;
36817;SDS011;22761;51.542;16.450;2022-12-24T06:28:48;26.68;;;16.20;;
36817;SDS011;22761;51.542;16.450;2022-12-24T06:31:18;31.47;;;18.83;;
36817;SDS011;22761;51.542;16.450;2022-12-24T06:33:48;29.73;;;18.17;;
36817;SDS011;22761;51.542;16.450;2022-12-24T06:36:17;27.43;;;17.63;;
36817;SDS011;22761;51.542;16.450;2022-12-24T06:38:49;25.87;;;17.17;;
36817;SDS011;22761;51.542;16.450;2022-12-24T06:41:18;27.37;;;17.97;;
36817;SDS011;22761;51.542;16.450;2022-12-24T06:43:46;23.73;;;16.87;;
36817;SDS011;22761;51.542;16.450;2022-12-24T06:46:17;24.13;;;16.90;;
36817;SDS011;22761;51.542;16.450;2022-12-24T06:48:46;23.43;;;16.23;;
36817;SDS011;22761;51.542;16.450;2022-12-24T06:51:13;21.73;;;14.93;;
36817;SDS011;22761;51.542;16.450;2022-12-24T06:53:45;21.63;;;15.23;;
36817;SDS011;22761;51.542;16.450;2022-12-24T06:58:56;29.00;;;18.17;;
36817;SDS011;22761;51.542;16.450;2022-12-24T07:01:24;36.63;;;22.67;;
36817;SDS011;22761;51.542;16.450;2022-12-24T07:03:51;25.07;;;17.70;;
36817;SDS011;22761;51.542;16.450;2022-12-24T07:06:19;22.57;;;16.37;;
36817;SDS011;22761;51.542;16.450;2022-12-24T07:08:53;24.13;;;15.60;;
36817;SDS011;22761;51.542;16.450;2022-12-24T07:11:20;31.03;;;17.07;;
36817;SDS011;22761;51.542;16.450;2022-12-24T07:13:48;23.90;;;16.03;;
36817;SDS011;22761;51.542;16.450;2022-12-24T07:16:15;21.80;;;15.53;;
36817;SDS011;22761;51.542;16.450;2022-12-24T07:18:43;20.77;;;14.27;;
36817;SDS011;22761;51.542;16.450;2022-12-24T07:21:10;20.27;;;14.40;;
36817;SDS011;22761;51.542;16.450;2022-12-24T07:23:37;24.17;;;14.90;;
36817;SDS011;22761;51.542;16.450;2022-12-24T07:26:05;19.90;;;14.83;;
36817;SDS011;22761;51.542;16.450;2022-12-24T07:28:32;21.40;;;14.37;;
36817;SDS011;22761;51.542;16.450;2022-12-24T07:30:59;19.83;;;13.60;;
36817;SDS011;22761;51.542;16.450;2022-12-24T07:33:26;20.17;;;13.40;;
36817;SDS011;22761;51.542;16.450;2022-12-24T07:36:01;20.20;;;14.20;;
36817;SDS011;22761;51.542;16.450;2022-12-24T07:38:30;20.07;;;13.97;;
36817;SDS011;22761;51.542;16.450;2022-12-24T07:40:59;22.70;;;14.20;;
36817;SDS011;22761;51.542;16.450;2022-12-24T07:43:26;21.33;;;14.63;;
36817;SDS011;22761;51.542;16.450;2022-12-24T07:45:55;19.80;;;13.80;;
36817;SDS011;22761;51.542;16.450;2022-12-24T07:48:23;20.60;;;13.90;;
36817;SDS011;22761;51.542;16.450;2022-12-24T07:50:52;21.43;;;13.83;;
36817;SDS011;22761;51.542;16.450;2022-12-24T07:53:21;22.50;;;14.77;;
36817;SDS011;22761;51.542;16.450;2022-12-24T07:55:49;23.40;;;15.80;;
36817;SDS011;22761;51.542;16.450;2022-12-24T07:58:16;23.30;;;14.43;;
36817;SDS011;22761;51.542;16.450;2022-12-24T08:00:43;26.87;;;15.27;;
36817;SDS011;22761;51.542;16.450;2022-12-24T08:03:17;31.70;;;18.13;;
36817;SDS011;22761;51.542;16.450;2022-12-24T08:05:45;35.23;;;18.67;;
36817;SDS011;22761;51.542;16.450;2022-12-24T08:08:13;31.53;;;17.90;;
36817;SDS011;22761;51.542;16.450;2022-12-24T08:10:41;29.53;;;17.47;;
36817;SDS011;22761;51.542;16.450;2022-12-24T08:13:10;27.70;;;17.07;;
36817;SDS011;22761;51.542;16.450;2022-12-24T08:15:37;25.10;;;15.77;;
36817;SDS011;22761;51.542;16.450;2022-12-24T08:18:04;27.77;;;17.27;;
36817;SDS011;22761;51.542;16.450;2022-12-24T08:20:31;30.07;;;18.20;;
36817;SDS011;22761;51.542;16.450;2022-12-24T08:22:59;26.10;;;15.90;;
36817;SDS011;22761;51.542;16.450;2022-12-24T08:25:26;26.70;;;15.77;;
36817;SDS011;22761;51.542;16.450;2022-12-24T08:27:53;26.27;;;15.37;;
36817;SDS011;22761;51.542;16.450;2022-12-24T08:30:20;30.10;;;17.13;;
36817;SDS011;22761;51.542;16.450;2022-12-24T08:32:47;27.27;;;16.57;;
36817;SDS011;22761;51.542;16.450;2022-12-24T08:35:14;24.13;;;15.13;;
36817;SDS011;22761;51.542;16.450;2022-12-24T08:37:41;22.10;;;14.53;;
36817;SDS011;22761;51.542;16.450;2022-12-24T08:40:09;25.77;;;17.13;;
36817;SDS011;22761;51.542;16.450;2022-12-24T08:42:37;20.23;;;12.90;;
36817;SDS011;22761;51.542;16.450;2022-12-24T08:45:04;18.03;;;12.80;;
36817;SDS011;22761;51.542;16.450;2022-12-24T08:47:34;16.23;;;11.03;;
36817;SDS011;22761;51.542;16.450;2022-12-24T08:50:01;15.10;;;10.37;;
36817;SDS011;22761;51.542;16.450;2022-12-24T08:52:31;15.00;;;11.15;;
36817;SDS011;22761;51.542;16.450;2022-12-24T08:54:58;18.20;;;11.83;;
36817;SDS011;22761;51.542;16.450;2022-12-24T08:57:25;15.20;;;10.70;;
36817;SDS011;22761;51.542;16.450;2022-12-24T08:59:53;15.53;;;10.57;;
36817;SDS011;22761;51.542;16.450;2022-12-24T09:02:19;14.83;;;8.80;;
36817;SDS011;22761;51.542;16.450;2022-12-24T09:04:47;14.03;;;9.27;;
36817;SDS011;22761;51.542;16.450;2022-12-24T09:07:14;21.93;;;13.93;;
36817;SDS011;22761;51.542;16.450;2022-12-24T09:09:41;15.70;;;10.33;;
36817;SDS011;22761;51.542;16.450;2022-12-24T09:12:08;22.47;;;15.00;;
36817;SDS011;22761;51.542;16.450;2022-12-24T09:14:36;33.37;;;22.30;;
36817;SDS011;22761;51.542;16.450;2022-12-24T09:17:03;21.90;;;15.30;;
36817;SDS011;22761;51.542;16.450;2022-12-24T09:19:32;14.93;;;11.00;;
36817;SDS011;22761;51.542;16.450;2022-12-24T09:22:02;17.55;;;11.85;;
36817;SDS011;22761;51.542;16.450;2022-12-24T09:24:29;15.23;;;10.73;;
36817;SDS011;22761;51.542;16.450;2022-12-24T09:26:57;16.10;;;10.23;;
36817;SDS011;22761;51.542;16.450;2022-12-24T09:29:24;15.37;;;9.53;;
36817;SDS011;22761;51.542;16.450;2022-12-24T09:31:51;22.53;;;13.60;;
36817;SDS011;22761;51.542;16.450;2022-12-24T09:34:20;24.37;;;16.67;;
36817;SDS011;22761;51.542;16.450;2022-12-24T09:36:47;27.57;;;15.53;;
36817;SDS011;22761;51.542;16.450;2022-12-24T09:39:14;32.53;;;16.40;;
36817;SDS011;22761;51.542;16.450;2022-12-24T09:44:33;16.03;;;10.37;;
36817;SDS011;22761;51.542;16.450;2022-12-24T09:47:27;20.50;;;11.93;;
36817;SDS011;22761;51.542;16.450;2022-12-24T09:50:08;23.47;;;13.37;;
36817;SDS011;22761;51.542;16.450;2022-12-24T09:52:53;24.23;;;14.37;;
36817;SDS011;22761;51.542;16.450;2022-12-24T09:55:34;35.58;;;21.95;;
36817;SDS011;22761;51.542;16.450;2022-12-24T09:58:09;85.90;;;55.10;;
36817;SDS011;22761;51.542;16.450;2022-12-24T10:00:40;59.23;;;33.93;;
36817;SDS011;22761;51.542;16.450;2022-12-24T10:03:15;42.13;;;26.20;;
36817;SDS011;22761;51.542;16.450;2022-12-24T10:05:50;40.60;;;26.93;;
36817;SDS011;22761;51.542;16.450;2022-12-24T10:17:15;27.90;;;19.20;;
36817;SDS011;22761;51.542;16.450;2022-12-24T10:22:42;28.10;;;20.40;;
36817;SDS011;22761;51.542;16.450;2022-12-24T10:27:57;20.50;;;16.37;;
36817;SDS011;22761;51.542;16.450;2022-12-24T10:30:26;18.93;;;13.00;;
36817;SDS011;22761;51.542;16.450;2022-12-24T10:32:53;17.27;;;13.07;;
36817;SDS011;22761;51.542;16.450;2022-12-24T10:35:22;16.70;;;11.90;;
36817;SDS011;22761;51.542;16.450;2022-12-24T10:37:59;17.63;;;11.40;;
36817;SDS011;22761;51.542;16.450;2022-12-24T10:40:29;15.87;;;11.60;;
36817;SDS011;22761;51.542;16.450;2022-12-24T10:43:00;19.73;;;15.47;;
36817;SDS011;22761;51.542;16.450;2022-12-24T10:45:30;19.63;;;16.50;;
36817;SDS011;22761;51.542;16.450;2022-12-24T10:48:06;23.93;;;17.60;;
36817;SDS011;22761;51.542;16.450;2022-12-24T10:50:40;23.00;;;14.70;;
36817;SDS011;22761;51.542;16.450;2022-12-24T10:53:21;27.60;;;16.10;;
36817;SDS011;22761;51.542;16.450;2022-12-24T10:56:04;18.73;;;13.37;;
36817;SDS011;22761;51.542;16.450;2022-12-24T10:58:34;19.30;;;12.63;;
36817;SDS011;22761;51.542;16.450;2022-12-24T11:01:02;18.57;;;12.90;;
36817;SDS011;22761;51.542;16.450;2022-12-24T11:03:31;17.03;;;11.83;;
36817;SDS011;22761;51.542;16.450;2022-12-24T11:06:03;14.47;;;11.33;;
36817;SDS011;22761;51.542;16.450;2022-12-24T11:08:41;16.73;;;12.37;;
36817;SDS011;22761;51.542;16.450;2022-12-24T11:11:16;24.67;;;16.65;;
36817;SDS011;22761;51.542;16.450;2022-12-24T11:16:28;23.47;;;14.67;;
36817;SDS011;22761;51.542;16.450;2022-12-24T11:19:01;23.87;;;13.33;;
36817;SDS011;22761;51.542;16.450;2022-12-24T11:24:25;22.10;;;14.10;;
36817;SDS011;22761;51.542;16.450;2022-12-24T11:29:46;14.20;;;8.88;;
36817;SDS011;22761;51.542;16.450;2022-12-24T11:32:16;10.30;;;7.50;;
36817;SDS011;22761;51.542;16.450;2022-12-24T11:34:44;9.63;;;7.10;;
36817;SDS011;22761;51.542;16.450;2022-12-24T11:37:16;10.30;;;6.63;;
36817;SDS011;22761;51.542;16.450;2022-12-24T11:39:51;7.77;;;6.33;;
36817;SDS011;22761;51.542;16.450;2022-12-24T11:42:31;5.80;;;4.85;;
36817;SDS011;22761;51.542;16.450;2022-12-24T11:45:06;16.97;;;9.63;;
36817;SDS011;22761;51.542;16.450;2022-12-24T11:47:44;7.27;;;5.97;;
36817;SDS011;22761;51.542;16.450;2022-12-24T11:50:22;7.73;;;5.67;;
36817;SDS011;22761;51.542;16.450;2022-12-24T11:55:54;8.90;;;6.07;;
36817;SDS011;22761;51.542;16.450;2022-12-24T11:58:25;8.73;;;6.03;;
36817;SDS011;22761;51.542;16.450;2022-12-24T12:07:12;8.83;;;5.57;;
36817;SDS011;22761;51.542;16.450;2022-12-24T12:13:04;6.07;;;3.37;;
36817;SDS011;22761;51.542;16.450;2022-12-24T12:15:50;5.60;;;2.93;;
36817;SDS011;22761;51.542;16.450;2022-12-24T12:18:37;4.60;;;3.17;;
36817;SDS011;22761;51.542;16.450;2022-12-24T12:21:10;7.97;;;4.10;;
36817;SDS011;22761;51.542;16.450;2022-12-24T12:24:02;14.97;;;8.27;;
36817;SDS011;22761;51.542;16.450;2022-12-24T12:26:29;9.40;;;5.97;;
36817;SDS011;22761;51.542;16.450;2022-12-24T12:29:00;6.57;;;4.57;;
36817;SDS011;22761;51.542;16.450;2022-12-24T12:32:12;6.03;;;4.57;;
36817;SDS011;22761;51.542;16.450;2022-12-24T12:34:35;7.70;;;5.07;;
36817;SDS011;22761;51.542;16.450;2022-12-24T12:39:44;6.97;;;4.60;;
36817;SDS011;22761;51.542;16.450;2022-12-24T12:42:20;7.17;;;5.20;;
36817;SDS011;22761;51.542;16.450;2022-12-24T12:50:30;9.00;;;5.20;;
36817;SDS011;22761;51.542;16.450;2022-12-24T12:58:47;8.90;;;3.77;;
36817;SDS011;22761;51.542;16.450;2022-12-24T13:13:11;11.10;;;3.40;;
36817;SDS011;22761;51.542;16.450;2022-12-24T13:22:00;9.60;;;3.07;;
36817;SDS011;22761;51.542;16.450;2022-12-24T13:24:27;12.37;;;3.47;;
36817;SDS011;22761;51.542;16.450;2022-12-24T13:37:50;10.30;;;3.07;;
36817;SDS011;22761;51.542;16.450;2022-12-24T13:40:24;12.27;;;3.23;;
36817;SDS011;22761;51.542;16.450;2022-12-24T13:50:55;13.07;;;3.93;;
36817;SDS011;22761;51.542;16.450;2022-12-24T13:53:30;8.30;;;3.00;;
36817;SDS011;22761;51.542;16.450;2022-12-24T13:56:19;11.07;;;2.80;;
36817;SDS011;22761;51.542;16.450;2022-12-24T13:58:51;12.80;;;3.87;;
36817;SDS011;22761;51.542;16.450;2022-12-24T14:01:31;9.70;;;3.50;;
36817;SDS011;22761;51.542;16.450;2022-12-24T14:03:50;10.10;;;3.83;;
36817;SDS011;22761;51.542;16.450;2022-12-24T14:06:36;7.77;;;3.00;;
36817;SDS011;22761;51.542;16.450;2022-12-24T14:09:10;13.73;;;3.73;;
36817;SDS011;22761;51.542;16.450;2022-12-24T14:14:34;15.70;;;6.00;;
36817;SDS011;22761;51.542;16.450;2022-12-24T14:17:27;16.37;;;6.73;;
36817;SDS011;22761;51.542;16.450;2022-12-24T14:20:06;18.93;;;7.90;;
36817;SDS011;22761;51.542;16.450;2022-12-24T14:22:47;16.77;;;6.67;;
36817;SDS011;22761;51.542;16.450;2022-12-24T14:25:20;17.77;;;9.77;;
36817;SDS011;22761;51.542;16.450;2022-12-24T14:28:10;12.40;;;6.23;;
36817;SDS011;22761;51.542;16.450;2022-12-24T14:30:33;14.77;;;6.53;;
36817;SDS011;22761;51.542;16.450;2022-12-24T14:33:01;16.63;;;8.20;;
36817;SDS011;22761;51.542;16.450;2022-12-24T14:35:29;14.53;;;5.30;;
36817;SDS011;22761;51.542;16.450;2022-12-24T14:38:04;12.33;;;5.20;;
36817;SDS011;22761;51.542;16.450;2022-12-24T14:46:23;38.13;;;18.27;;
36817;SDS011;22761;51.542;16.450;2022-12-24T14:52:13;14.23;;;8.00;;
36817;SDS011;22761;51.542;16.450;2022-12-24T14:54:43;13.63;;;7.53;;
36817;SDS011;22761;51.542;16.450;2022-12-24T14:59:50;13.00;;;6.30;;
36817;SDS011;22761;51.542;16.450;2022-12-24T15:02:34;24.83;;;11.07;;
36817;SDS011;22761;51.542;16.450;2022-12-24T15:05:19;21.33;;;9.33;;
36817;SDS011;22761;51.542;16.450;2022-12-24T15:07:53;13.93;;;5.63;;
36817;SDS011;22761;51.542;16.450;2022-12-24T15:10:32;17.00;;;5.00;;
36817;SDS011;22761;51.542;16.450;2022-12-24T15:13:21;10.73;;;3.50;;
36817;SDS011;22761;51.542;16.450;2022-12-24T15:16:12;11.17;;;4.90;;
36817;SDS011;22761;51.542;16.450;2022-12-24T15:19:03;10.70;;;5.77;;
36817;SDS011;22761;51.542;16.450;2022-12-24T15:21:40;14.63;;;6.40;;
36817;SDS011;22761;51.542;16.450;2022-12-24T15:27:01;10.50;;;3.93;;
36817;SDS011;22761;51.542;16.450;2022-12-24T15:29:32;11.03;;;3.27;;
36817;SDS011;22761;51.542;16.450;2022-12-24T15:32:04;11.43;;;3.93;;
36817;SDS011;22761;51.542;16.450;2022-12-24T15:34:38;11.97;;;3.50;;
36817;SDS011;22761;51.542;16.450;2022-12-24T15:40:05;9.40;;;3.60;;
36817;SDS011;22761;51.542;16.450;2022-12-24T15:42:35;19.03;;;11.97;;
36817;SDS011;22761;51.542;16.450;2022-12-24T15:45:12;14.97;;;8.67;;
36817;SDS011;22761;51.542;16.450;2022-12-24T15:47:47;19.03;;;9.73;;
36817;SDS011;22761;51.542;16.450;2022-12-24T15:50:27;23.50;;;17.37;;
36817;SDS011;22761;51.542;16.450;2022-12-24T15:53:00;21.13;;;12.80;;
36817;SDS011;22761;51.542;16.450;2022-12-24T15:55:36;18.87;;;10.07;;
36817;SDS011;22761;51.542;16.450;2022-12-24T15:58:14;15.83;;;9.50;;
36817;SDS011;22761;51.542;16.450;2022-12-24T16:01:00;17.17;;;6.33;;
36817;SDS011;22761;51.542;16.450;2022-12-24T16:03:40;12.33;;;5.80;;
36817;SDS011;22761;51.542;16.450;2022-12-24T16:06:19;10.13;;;3.63;;
36817;SDS011;22761;51.542;16.450;2022-12-24T16:08:48;26.53;;;13.07;;
36817;SDS011;22761;51.542;16.450;2022-12-24T16:11:18;52.00;;;29.47;;
36817;SDS011;22761;51.542;16.450;2022-12-24T16:16:59;54.07;;;25.27;;
36817;SDS011;22761;51.542;16.450;2022-12-24T16:21:56;24.80;;;10.97;;
36817;SDS011;22761;51.542;16.450;2022-12-24T16:24:34;37.50;;;20.47;;
36817;SDS011;22761;51.542;16.450;2022-12-24T16:27:01;10.47;;;4.47;;
36817;SDS011;22761;51.542;16.450;2022-12-24T16:29:30;19.93;;;11.97;;
36817;SDS011;22761;51.542;16.450;2022-12-24T16:31:58;23.67;;;13.60;;
36817;SDS011;22761;51.542;16.450;2022-12-24T16:34:26;24.50;;;14.00;;
36817;SDS011;22761;51.542;16.450;2022-12-24T16:36:57;22.40;;;13.17;;
36817;SDS011;22761;51.542;16.450;2022-12-24T16:39:30;10.53;;;5.80;;
36817;SDS011;22761;51.542;16.450;2022-12-24T16:42:01;9.50;;;4.40;;
36817;SDS011;22761;51.542;16.450;2022-12-24T16:44:51;10.30;;;4.80;;
36817;SDS011;22761;51.542;16.450;2022-12-24T16:47:27;9.60;;;5.33;;
36817;SDS011;22761;51.542;16.450;2022-12-24T16:49:59;8.97;;;5.23;;
36817;SDS011;22761;51.542;16.450;2022-12-24T16:52:28;11.60;;;5.20;;
36817;SDS011;22761;51.542;16.450;2022-12-24T16:54:58;8.57;;;2.70;;
36817;SDS011;22761;51.542;16.450;2022-12-24T16:57:27;16.90;;;13.07;;